Providence, Rhode Island
Traffic Map
Current Weather Conditions
Providence, Rhode Island
Broken Clouds
Broken Clouds
71°
Feels Like: 71°
Wind Chill: 71° Ceiling: 30000
Heat Index: 71° Visibility: 10mi
Dew Point: 59° Wind: 6mph
Humidity: 66% Direction: 170° (S)
Pressure: 29.97in Gusts: 0mph
Raw Report DataKPVD 291451Z 17005KT 10SM FEW075 FEW095 SCT120 SCT250 BKN300 22/15 A2997 RMK AO2 SLP148 T02170150 56009 $
Traffic Incident Summary
Active as of:
Severity:
Category:
InformationThere was an issue retrieving the traffic information for this location. Please try a different location or try again shortly.
Advertisements
Track Severe Weather on mobile